Welcome to Des Moines Iowa Weather. I am an independent private personal weather station on the Northwest Side of Des Moines, Iowa. Just East of Windsor Heights and just West of Glendale . This site is also mobile friendly.

There are no active watches, warnings or advisories


Visit our other weather sites:

Historical Data

Weather Station Setup



Weather Underground History page Text

Daily Summary for June 16, 2017 Units:  English    Metric   Both
« Previous Day
Next Day »
Daily Weekly Monthly Yearly Custom
  High: Low: Average:
Temperature: 90.1 °F 64.4 °F 77.4 °F
Dew Point: 74.0 °F 62.0 °F 68.1 °F
Humidity: 94 % 51 % 75 %
Wind Speed: 5.0 mph 0.0 mph 0.2 mph
Wind Gust: 7.0 mph - -
Wind:- - SSE
Pressure: 29.77 in 29.48 in -
Precipitation: 0.04 in    
Historical Graphs
 
 
Tabular Data for June 16, 2017
Time Temperature Dew Point Pressure Wind Wind Speed Wind Gust Humidity Rainfall Rate (Hourly)
00:12 70.3 °F 67.0 °F 29.75 in Calm   1.0 mph 88 % 0.13 in
00:26 69.9 °F 67.0 °F 29.75 in SW 1.0 mph 3.0 mph 89 % 0.01 in
00:41 69.2 °F 66.0 °F 29.75 in Calm   2.0 mph 89 % 0.00 in
00:57 69.1 °F 66.0 °F 29.77 in Calm     90 % 0.00 in
01:12 68.9 °F 66.0 °F 29.76 in Calm     91 % 0.01 in
01:27 68.5 °F 66.0 °F 29.76 in East 2.0 mph 3.0 mph 91 % 0.01 in
01:42 68.2 °F 65.0 °F 29.75 in Calm   5.0 mph 90 % 0.01 in
01:57 68.0 °F 65.0 °F 29.75 in Calm     90 % 0.00 in
02:12 67.7 °F 65.0 °F 29.74 in Calm     90 % 0.00 in
02:27 67.5 °F 65.0 °F 29.75 in Calm     91 % 0.00 in
02:42 67.2 °F 65.0 °F 29.75 in Calm     91 % 0.00 in
02:57 67.0 °F 64.0 °F 29.74 in Calm     91 % 0.00 in
03:12 66.6 °F 64.0 °F 29.74 in Calm     91 % 0.00 in
03:27 66.4 °F 64.0 °F 29.74 in Calm     91 % 0.00 in
03:42 66.2 °F 64.0 °F 29.74 in Calm     91 % 0.00 in
03:57 66.0 °F 63.0 °F 29.74 in Calm     91 % 0.00 in
04:12 65.8 °F 64.0 °F 29.74 in Calm     92 % 0.00 in
04:27 65.6 °F 63.0 °F 29.75 in Calm     92 % 0.00 in
04:42 65.4 °F 63.0 °F 29.74 in Calm     92 % 0.00 in
04:57 65.2 °F 63.0 °F 29.74 in Calm     93 % 0.00 in
05:12 65.0 °F 63.0 °F 29.74 in Calm     92 % 0.00 in
05:27 64.8 °F 63.0 °F 29.74 in Calm     92 % 0.00 in
05:42 64.7 °F 63.0 °F 29.74 in Calm     93 % 0.00 in
05:57 64.6 °F 63.0 °F 29.74 in Calm     93 % 0.00 in
06:12 64.5 °F 63.0 °F 29.75 in Calm     93 % 0.00 in
06:27 64.5 °F 63.0 °F 29.75 in Calm     93 % 0.00 in
06:42 64.4 °F 62.0 °F 29.75 in Calm     93 % 0.00 in
06:57 64.6 °F 63.0 °F 29.74 in Calm   1.0 mph 93 % 0.00 in
07:12 65.0 °F 63.0 °F 29.74 in Calm   1.0 mph 94 % 0.00 in
07:27 65.6 °F 64.0 °F 29.74 in Calm   3.0 mph 94 % 0.00 in
07:42 66.5 °F 65.0 °F 29.74 in Calm   2.0 mph 93 % 0.00 in
07:57 67.2 °F 65.0 °F 29.74 in Calm   2.0 mph 92 % 0.00 in
08:12 68.1 °F 65.0 °F 29.74 in South 1.0 mph 3.0 mph 90 % 0.00 in
08:27 69.1 °F 66.0 °F 29.74 in South 1.0 mph 2.0 mph 88 % 0.00 in
08:42 70.5 °F 66.0 °F 29.74 in Calm   3.0 mph 84 % 0.00 in
08:57 71.7 °F 66.0 °F 29.74 in Calm   4.0 mph 83 % 0.00 in
09:12 72.8 °F 66.0 °F 29.73 in Calm   5.0 mph 79 % 0.00 in
09:28 74.1 °F 65.0 °F 29.73 in Calm   4.0 mph 74 % 0.00 in
09:43 75.3 °F 66.0 °F 29.73 in Calm   3.0 mph 72 % 0.00 in
09:58 76.4 °F 67.0 °F 29.73 in Calm   1.0 mph 72 % 0.00 in
10:13 77.4 °F 66.0 °F 29.72 in Calm   3.0 mph 69 % 0.00 in
10:28 78.5 °F 67.0 °F 29.72 in Calm   4.0 mph 67 % 0.00 in
10:43 79.9 °F 67.0 °F 29.71 in North 1.0 mph 4.0 mph 64 % 0.00 in
10:58 81.2 °F 67.0 °F 29.71 in Calm   6.0 mph 63 % 0.00 in
11:13 82.4 °F 68.0 °F 29.71 in SSE 1.0 mph 5.0 mph 61 % 0.00 in
11:28 83.3 °F 68.0 °F 29.71 in Calm   4.0 mph 60 % 0.00 in
11:43 84.2 °F 69.0 °F 29.70 in Calm   6.0 mph 60 % 0.00 in
11:58 85.0 °F 68.0 °F 29.70 in Calm   4.0 mph 56 % 0.00 in
12:13 85.9 °F 68.0 °F 29.69 in South 1.0 mph 5.0 mph 55 % 0.00 in
12:28 86.6 °F 69.0 °F 29.69 in Calm   4.0 mph 55 % 0.00 in
12:43 86.9 °F 68.0 °F 29.69 in Calm   5.0 mph 53 % 0.00 in
12:58 87.0 °F 70.0 °F 29.68 in SSW 1.0 mph 5.0 mph 57 % 0.00 in
13:14 87.4 °F 68.0 °F 29.67 in NE 1.0 mph 4.0 mph 52 % 0.00 in
13:29 87.9 °F 68.0 °F 29.66 in SSE 1.0 mph 6.0 mph 51 % 0.00 in
13:44 88.1 °F 70.0 °F 29.66 in Calm   4.0 mph 56 % 0.00 in
13:59 88.5 °F 69.0 °F 29.65 in Calm   4.0 mph 53 % 0.00 in
14:14 88.7 °F 70.0 °F 29.65 in Calm   4.0 mph 54 % 0.00 in
14:29 88.9 °F 69.0 °F 29.64 in Calm   4.0 mph 52 % 0.00 in
14:44 89.3 °F 70.0 °F 29.65 in SSW 1.0 mph 6.0 mph 53 % 0.00 in
14:59 90.1 °F 71.0 °F 29.64 in Calm   3.0 mph 53 % 0.00 in
15:14 89.7 °F 70.0 °F 29.63 in Calm   6.0 mph 53 % 0.00 in
15:29 89.4 °F 71.0 °F 29.63 in Calm   3.0 mph 54 % 0.00 in
15:44 88.4 °F 72.0 °F 29.62 in Calm   2.0 mph 58 % 0.00 in
15:59 87.4 °F 70.0 °F 29.61 in Calm   5.0 mph 57 % 0.00 in
16:14 86.8 °F 70.0 °F 29.60 in NE 1.0 mph 6.0 mph 58 % 0.00 in
16:29 87.3 °F 71.0 °F 29.59 in SW 3.0 mph 7.0 mph 58 % 0.00 in
16:44 87.5 °F 70.0 °F 29.59 in SW 5.0 mph 5.0 mph 57 % 0.00 in
16:59 88.7 °F 70.0 °F 29.58 in Calm   3.0 mph 55 % 0.00 in
17:14 88.5 °F 71.0 °F 29.57 in Calm   3.0 mph 56 % 0.00 in
17:29 89.0 °F 71.0 °F 29.57 in North 2.0 mph 4.0 mph 55 % 0.00 in
17:44 89.2 °F 71.0 °F 29.56 in Calm   4.0 mph 55 % 0.00 in
17:59 89.6 °F 73.0 °F 29.56 in Calm   4.0 mph 58 % 0.00 in
18:14 89.8 °F 71.0 °F 29.56 in Calm   4.0 mph 54 % 0.00 in
18:29 88.8 °F 71.0 °F 29.57 in Calm   4.0 mph 56 % 0.00 in
18:44 87.9 °F 71.0 °F 29.56 in Calm   1.0 mph 57 % 0.00 in
18:59 87.0 °F 71.0 °F 29.55 in Calm     59 % 0.00 in
19:14 86.1 °F 72.0 °F 29.56 in Calm   1.0 mph 62 % 0.00 in
19:29 85.3 °F 71.0 °F 29.56 in Calm   2.0 mph 62 % 0.00 in
19:44 84.7 °F 71.0 °F 29.57 in Calm     63 % 0.00 in
19:59 84.1 °F 71.0 °F 29.58 in Calm     64 % 0.00 in
20:14 83.7 °F 73.0 °F 29.59 in Calm     69 % 0.00 in
20:29 82.9 °F 73.0 °F 29.58 in Calm     73 % 0.00 in
20:45 81.8 °F 74.0 °F 29.56 in Calm     76 % 0.00 in
20:59 80.9 °F 73.0 °F 29.56 in Calm     77 % 0.00 in
21:14 79.9 °F 73.0 °F 29.55 in Calm     80 % 0.01 in
21:29 79.1 °F 74.0 °F 29.51 in Calm     83 % 0.03 in
21:44 78.4 °F 73.0 °F 29.53 in Calm     84 % 0.03 in
21:59 77.8 °F 73.0 °F 29.52 in Calm     86 % 0.03 in
22:14 77.3 °F 73.0 °F 29.53 in Calm     87 % 0.02 in
22:29 76.9 °F 73.0 °F 29.52 in Calm     87 % 0.00 in
22:44 76.7 °F 73.0 °F 29.50 in Calm     89 % 0.00 in
23:00 76.5 °F 73.0 °F 29.48 in Calm     89 % 0.00 in
23:15 76.2 °F 73.0 °F 29.49 in Calm   2.0 mph 90 % 0.00 in
23:30 76.2 °F 73.0 °F 29.49 in Calm   1.0 mph 90 % 0.00 in
23:45 76.1 °F 73.0 °F 29.51 in Calm   3.0 mph 90 % 0.00 in
Des Moines Weather and Climate
Compliments of Weather Underground - 3 mb

Script developed by  Jim McMurry - jmcmurry@mwt.net Adapted for the template by  Wim van der Kuil - Leuven-Template.eu

You find our weather info also at:

Weather Underground

Equipment we use:

Weather-station
Davis VP2 Plus

Weather-program
Davis Weatherlink.Com

Weather-server
iMac (Retina 4K, 21.5-inch, Late 2015)

Provider
Hostmonster.com

Davis VP2 Plus

Davis Weatherlink.Com

iMac (Retina 4K, 21.5-inch, Late 2015)

Hostmonster.com